sensor_id;sensor_type;location;lat;lon;timestamp;pressure;altitude;pressure_sealevel;temperature;humidity
47811;BME280;33575;52.600;7.318;2023-12-07T00:00:56;101669.37;;;2.29;97.53
47811;BME280;33575;52.600;7.318;2023-12-07T00:03:26;101668.85;;;2.31;97.25
47811;BME280;33575;52.600;7.318;2023-12-07T00:05:56;101671.22;;;2.35;97.46
47811;BME280;33575;52.600;7.318;2023-12-07T00:08:26;101671.99;;;2.34;97.52
47811;BME280;33575;52.600;7.318;2023-12-07T00:10:58;101676.92;;;2.36;97.37
47811;BME280;33575;52.600;7.318;2023-12-07T00:13:27;101676.87;;;2.33;97.32
47811;BME280;33575;52.600;7.318;2023-12-07T00:15:58;101683.13;;;2.33;96.97
47811;BME280;33575;52.600;7.318;2023-12-07T00:18:28;101684.58;;;2.36;97.05
47811;BME280;33575;52.600;7.318;2023-12-07T00:20:59;101681.69;;;2.41;97.10
47811;BME280;33575;52.600;7.318;2023-12-07T00:23:30;101677.75;;;2.42;97.50
47811;BME280;33575;52.600;7.318;2023-12-07T00:26:00;101674.86;;;2.44;97.46
47811;BME280;33575;52.600;7.318;2023-12-07T00:28:31;101672.11;;;2.50;97.38
47811;BME280;33575;52.600;7.318;2023-12-07T00:31:01;101671.44;;;2.55;97.21
47811;BME280;33575;52.600;7.318;2023-12-07T00:33:31;101671.33;;;2.52;96.95
47811;BME280;33575;52.600;7.318;2023-12-07T00:36:02;101672.01;;;2.48;96.55
47811;BME280;33575;52.600;7.318;2023-12-07T00:38:32;101668.99;;;2.48;96.94
47811;BME280;33575;52.600;7.318;2023-12-07T00:41:02;101673.64;;;2.48;95.87
47811;BME280;33575;52.600;7.318;2023-12-07T00:43:33;101674.87;;;2.49;96.02
47811;BME280;33575;52.600;7.318;2023-12-07T00:46:06;101678.53;;;2.51;96.29
47811;BME280;33575;52.600;7.318;2023-12-07T00:48:34;101675.62;;;2.51;96.87
47811;BME280;33575;52.600;7.318;2023-12-07T00:51:05;101676.91;;;2.60;96.70
47811;BME280;33575;52.600;7.318;2023-12-07T00:53:36;101675.46;;;2.69;97.04
47811;BME280;33575;52.600;7.318;2023-12-07T00:56:07;101676.46;;;2.75;97.46
47811;BME280;33575;52.600;7.318;2023-12-07T00:58:36;101680.57;;;2.92;100.00
47811;BME280;33575;52.600;7.318;2023-12-07T01:01:07;101684.56;;;2.86;97.92
47811;BME280;33575;52.600;7.318;2023-12-07T01:03:37;101683.02;;;2.70;97.16
47811;BME280;33575;52.600;7.318;2023-12-07T01:06:08;101680.09;;;2.52;95.74
47811;BME280;33575;52.600;7.318;2023-12-07T01:08:39;101684.27;;;2.39;96.24
47811;BME280;33575;52.600;7.318;2023-12-07T01:11:10;101688.96;;;2.24;96.97
47811;BME280;33575;52.600;7.318;2023-12-07T01:13:41;101685.94;;;2.19;96.91
47811;BME280;33575;52.600;7.318;2023-12-07T01:16:11;101691.38;;;2.13;97.26
47811;BME280;33575;52.600;7.318;2023-12-07T01:18:41;101695.14;;;2.07;97.52
47811;BME280;33575;52.600;7.318;2023-12-07T01:21:14;101694.79;;;2.06;97.80
47811;BME280;33575;52.600;7.318;2023-12-07T01:23:43;101695.67;;;2.10;96.97
47811;BME280;33575;52.600;7.318;2023-12-07T01:26:13;101697.57;;;2.11;96.36
47811;BME280;33575;52.600;7.318;2023-12-07T01:28:44;101701.72;;;2.12;96.30
47811;BME280;33575;52.600;7.318;2023-12-07T01:31:14;101705.71;;;2.10;96.37
47811;BME280;33575;52.600;7.318;2023-12-07T01:33:45;101703.61;;;2.07;96.51
47811;BME280;33575;52.600;7.318;2023-12-07T01:36:16;101708.40;;;2.07;95.98
47811;BME280;33575;52.600;7.318;2023-12-07T01:38:46;101708.37;;;2.05;96.39
47811;BME280;33575;52.600;7.318;2023-12-07T01:41:17;101707.92;;;2.10;96.65
47811;BME280;33575;52.600;7.318;2023-12-07T01:43:47;101711.22;;;2.12;95.82
47811;BME280;33575;52.600;7.318;2023-12-07T01:46:18;101712.98;;;2.13;95.91
47811;BME280;33575;52.600;7.318;2023-12-07T01:48:48;101711.92;;;2.14;96.58
47811;BME280;33575;52.600;7.318;2023-12-07T01:51:19;101714.85;;;2.14;96.59
47811;BME280;33575;52.600;7.318;2023-12-07T01:53:49;101711.87;;;2.15;96.64
47811;BME280;33575;52.600;7.318;2023-12-07T01:56:19;101715.25;;;2.18;96.11
47811;BME280;33575;52.600;7.318;2023-12-07T01:58:50;101719.71;;;2.17;96.02
47811;BME280;33575;52.600;7.318;2023-12-07T02:01:20;101715.90;;;2.17;96.56
47811;BME280;33575;52.600;7.318;2023-12-07T02:03:50;101713.80;;;2.19;96.09
47811;BME280;33575;52.600;7.318;2023-12-07T02:06:21;101718.68;;;2.18;96.39
47811;BME280;33575;52.600;7.318;2023-12-07T02:08:51;101716.71;;;2.17;96.00
47811;BME280;33575;52.600;7.318;2023-12-07T02:11:22;101717.16;;;2.11;96.63
47811;BME280;33575;52.600;7.318;2023-12-07T02:13:52;101720.98;;;2.14;96.27
47811;BME280;33575;52.600;7.318;2023-12-07T02:16:27;101725.22;;;2.12;95.93
47811;BME280;33575;52.600;7.318;2023-12-07T02:19:00;101726.47;;;2.12;95.91
47811;BME280;33575;52.600;7.318;2023-12-07T02:21:30;101722.87;;;2.12;95.94
47811;BME280;33575;52.600;7.318;2023-12-07T02:23:55;101720.15;;;2.07;96.24
47811;BME280;33575;52.600;7.318;2023-12-07T02:26:31;101727.08;;;2.11;95.65
47811;BME280;33575;52.600;7.318;2023-12-07T02:28:55;101727.63;;;2.11;95.34
47811;BME280;33575;52.600;7.318;2023-12-07T02:31:26;101721.03;;;2.13;95.32
47811;BME280;33575;52.600;7.318;2023-12-07T02:33:56;101724.47;;;2.14;95.11
47811;BME280;33575;52.600;7.318;2023-12-07T02:36:28;101727.85;;;2.15;94.69
47811;BME280;33575;52.600;7.318;2023-12-07T02:38:58;101730.57;;;2.13;95.57
47811;BME280;33575;52.600;7.318;2023-12-07T02:41:27;101724.10;;;2.15;95.35
47811;BME280;33575;52.600;7.318;2023-12-07T02:43:57;101726.82;;;2.17;95.06
47811;BME280;33575;52.600;7.318;2023-12-07T02:46:27;101726.79;;;2.19;95.47
47811;BME280;33575;52.600;7.318;2023-12-07T02:48:57;101718.89;;;2.19;95.38
47811;BME280;33575;52.600;7.318;2023-12-07T02:51:28;101718.95;;;2.23;95.52
47811;BME280;33575;52.600;7.318;2023-12-07T02:53:59;101714.66;;;2.28;95.88
47811;BME280;33575;52.600;7.318;2023-12-07T02:56:29;101713.53;;;2.32;95.82
47811;BME280;33575;52.600;7.318;2023-12-07T02:58:59;101715.42;;;2.29;95.23
47811;BME280;33575;52.600;7.318;2023-12-07T03:01:30;101718.95;;;2.25;95.12
47811;BME280;33575;52.600;7.318;2023-12-07T03:04:00;101716.66;;;2.25;95.29
47811;BME280;33575;52.600;7.318;2023-12-07T03:06:30;101721.12;;;2.25;95.59
47811;BME280;33575;52.600;7.318;2023-12-07T03:09:01;101721.85;;;2.26;95.50
47811;BME280;33575;52.600;7.318;2023-12-07T03:11:31;101724.07;;;2.28;95.11
47811;BME280;33575;52.600;7.318;2023-12-07T03:14:01;101722.63;;;2.32;94.86
47811;BME280;33575;52.600;7.318;2023-12-07T03:16:32;101724.23;;;2.38;95.58
47811;BME280;33575;52.600;7.318;2023-12-07T03:19:03;101722.35;;;2.38;96.47
47811;BME280;33575;52.600;7.318;2023-12-07T03:21:33;101725.55;;;2.44;96.57
47811;BME280;33575;52.600;7.318;2023-12-07T03:24:04;101730.52;;;2.63;100.00
47811;BME280;33575;52.600;7.318;2023-12-07T03:26:34;101728.79;;;2.62;98.34
47811;BME280;33575;52.600;7.318;2023-12-07T03:29:04;101735.75;;;2.45;94.96
47811;BME280;33575;52.600;7.318;2023-12-07T03:31:35;101735.75;;;2.27;95.89
47811;BME280;33575;52.600;7.318;2023-12-07T03:34:05;101732.27;;;2.13;95.64
47811;BME280;33575;52.600;7.318;2023-12-07T03:36:36;101746.08;;;1.92;93.14
47811;BME280;33575;52.600;7.318;2023-12-07T03:39:06;101740.89;;;1.73;94.89
47811;BME280;33575;52.600;7.318;2023-12-07T03:41:37;101738.02;;;1.67;96.03
47811;BME280;33575;52.600;7.318;2023-12-07T03:44:07;101736.60;;;1.68;96.31
47811;BME280;33575;52.600;7.318;2023-12-07T03:46:38;101737.26;;;1.66;95.71
47811;BME280;33575;52.600;7.318;2023-12-07T03:49:09;101736.78;;;1.63;96.41
47811;BME280;33575;52.600;7.318;2023-12-07T03:51:39;101737.28;;;1.71;96.67
47811;BME280;33575;52.600;7.318;2023-12-07T03:54:09;101744.96;;;1.78;96.25
47811;BME280;33575;52.600;7.318;2023-12-07T03:56:39;101742.74;;;1.80;96.22
47811;BME280;33575;52.600;7.318;2023-12-07T03:59:10;101742.46;;;1.83;95.38
47811;BME280;33575;52.600;7.318;2023-12-07T04:01:40;101740.39;;;1.82;95.81
47811;BME280;33575;52.600;7.318;2023-12-07T04:04:11;101737.78;;;1.86;96.07
47811;BME280;33575;52.600;7.318;2023-12-07T04:06:41;101734.85;;;1.90;95.88
47811;BME280;33575;52.600;7.318;2023-12-07T04:09:12;101739.30;;;1.93;95.91
47811;BME280;33575;52.600;7.318;2023-12-07T04:11:41;101741.11;;;1.93;94.47
47811;BME280;33575;52.600;7.318;2023-12-07T04:14:12;101741.88;;;1.95;95.35
47811;BME280;33575;52.600;7.318;2023-12-07T04:16:42;101741.55;;;1.99;94.22
47811;BME280;33575;52.600;7.318;2023-12-07T04:19:13;101743.04;;;2.03;94.99
47811;BME280;33575;52.600;7.318;2023-12-07T04:21:43;101743.70;;;2.05;95.24
47811;BME280;33575;52.600;7.318;2023-12-07T04:24:13;101743.09;;;2.08;94.78
47811;BME280;33575;52.600;7.318;2023-12-07T04:26:44;101743.03;;;2.09;94.95
47811;BME280;33575;52.600;7.318;2023-12-07T04:29:14;101741.93;;;2.12;94.87
47811;BME280;33575;52.600;7.318;2023-12-07T04:31:45;101749.09;;;2.15;94.44
47811;BME280;33575;52.600;7.318;2023-12-07T04:34:15;101751.49;;;2.20;94.41
47811;BME280;33575;52.600;7.318;2023-12-07T04:36:46;101747.91;;;2.21;94.13
47811;BME280;33575;52.600;7.318;2023-12-07T04:39:16;101757.34;;;2.23;94.33
47811;BME280;33575;52.600;7.318;2023-12-07T04:41:47;101758.81;;;2.25;93.90
47811;BME280;33575;52.600;7.318;2023-12-07T04:44:17;101755.42;;;2.21;93.22
47811;BME280;33575;52.600;7.318;2023-12-07T04:46:48;101764.36;;;2.07;92.65
47811;BME280;33575;52.600;7.318;2023-12-07T04:49:19;101767.18;;;1.98;92.51
47811;BME280;33575;52.600;7.318;2023-12-07T04:51:50;101765.65;;;1.92;92.55
47811;BME280;33575;52.600;7.318;2023-12-07T04:54:21;101763.69;;;1.86;92.79
47811;BME280;33575;52.600;7.318;2023-12-07T04:56:51;101764.49;;;1.85;92.48
47811;BME280;33575;52.600;7.318;2023-12-07T04:59:21;101765.76;;;1.79;92.81
47811;BME280;33575;52.600;7.318;2023-12-07T05:01:51;101760.12;;;1.73;93.98
47811;BME280;33575;52.600;7.318;2023-12-07T05:04:22;101757.89;;;1.75;93.72
47811;BME280;33575;52.600;7.318;2023-12-07T05:06:52;101755.99;;;1.79;94.18
47811;BME280;33575;52.600;7.318;2023-12-07T05:09:23;101753.51;;;1.84;94.54
47811;BME280;33575;52.600;7.318;2023-12-07T05:11:53;101752.07;;;1.83;95.33
47811;BME280;33575;52.600;7.318;2023-12-07T05:14:23;101752.20;;;1.88;95.39
47811;BME280;33575;52.600;7.318;2023-12-07T05:16:54;101757.75;;;1.96;95.50
47811;BME280;33575;52.600;7.318;2023-12-07T05:19:25;101758.59;;;2.08;100.00
47811;BME280;33575;52.600;7.318;2023-12-07T05:21:55;101763.38;;;2.07;97.68
47811;BME280;33575;52.600;7.318;2023-12-07T05:24:25;101762.74;;;1.91;94.14
47811;BME280;33575;52.600;7.318;2023-12-07T05:26:56;101765.19;;;1.66;94.46
47811;BME280;33575;52.600;7.318;2023-12-07T05:29:26;101756.67;;;1.46;94.93
47811;BME280;33575;52.600;7.318;2023-12-07T05:31:57;101754.53;;;1.31;94.34
47811;BME280;33575;52.600;7.318;2023-12-07T05:34:27;101751.59;;;1.22;94.99
47811;BME280;33575;52.600;7.318;2023-12-07T05:36:57;101748.48;;;1.15;94.99
47811;BME280;33575;52.600;7.318;2023-12-07T05:39:28;101747.14;;;1.07;94.68
47811;BME280;33575;52.600;7.318;2023-12-07T05:41:59;101747.76;;;1.02;95.09
47811;BME280;33575;52.600;7.318;2023-12-07T05:44:29;101751.76;;;0.99;95.29
47811;BME280;33575;52.600;7.318;2023-12-07T05:47:00;101754.30;;;0.96;94.54
47811;BME280;33575;52.600;7.318;2023-12-07T05:49:30;101764.27;;;0.86;93.93
47811;BME280;33575;52.600;7.318;2023-12-07T05:52:01;101773.66;;;0.73;94.02
47811;BME280;33575;52.600;7.318;2023-12-07T05:54:31;101774.87;;;0.64;93.99
47811;BME280;33575;52.600;7.318;2023-12-07T05:57:01;101770.25;;;0.66;95.24
47811;BME280;33575;52.600;7.318;2023-12-07T05:59:36;101765.55;;;0.68;95.81
47811;BME280;33575;52.600;7.318;2023-12-07T06:02:04;101763.55;;;0.71;95.31
47811;BME280;33575;52.600;7.318;2023-12-07T06:04:33;101763.20;;;0.78;94.94
47811;BME280;33575;52.600;7.318;2023-12-07T06:07:04;101763.10;;;0.80;93.74
47811;BME280;33575;52.600;7.318;2023-12-07T06:09:35;101758.00;;;0.83;94.55
47811;BME280;33575;52.600;7.318;2023-12-07T06:12:05;101759.78;;;0.89;93.31
47811;BME280;33575;52.600;7.318;2023-12-07T06:14:35;101764.42;;;0.91;94.90
47811;BME280;33575;52.600;7.318;2023-12-07T06:17:06;101766.09;;;0.96;94.76
47811;BME280;33575;52.600;7.318;2023-12-07T06:19:36;101766.90;;;1.01;94.57
47811;BME280;33575;52.600;7.318;2023-12-07T06:22:06;101766.89;;;1.05;93.58
47811;BME280;33575;52.600;7.318;2023-12-07T06:24:36;101764.44;;;1.03;93.77
47811;BME280;33575;52.600;7.318;2023-12-07T06:27:06;101761.41;;;1.08;93.58
47811;BME280;33575;52.600;7.318;2023-12-07T06:29:37;101761.22;;;1.11;94.36
47811;BME280;33575;52.600;7.318;2023-12-07T06:32:07;101765.84;;;1.22;94.10
47811;BME280;33575;52.600;7.318;2023-12-07T06:34:40;101763.89;;;1.27;94.28
47811;BME280;33575;52.600;7.318;2023-12-07T06:37:08;101765.74;;;1.35;94.66
47811;BME280;33575;52.600;7.318;2023-12-07T06:39:39;101765.25;;;1.45;94.89
47811;BME280;33575;52.600;7.318;2023-12-07T06:42:09;101766.87;;;1.62;99.74
47811;BME280;33575;52.600;7.318;2023-12-07T06:44:40;101768.51;;;1.55;96.88
47811;BME280;33575;52.600;7.318;2023-12-07T06:47:10;101768.88;;;1.39;94.48
47811;BME280;33575;52.600;7.318;2023-12-07T06:49:46;101768.45;;;1.19;94.63
47811;BME280;33575;52.600;7.318;2023-12-07T06:52:12;101769.97;;;0.99;94.29
47811;BME280;33575;52.600;7.318;2023-12-07T06:54:42;101770.01;;;0.81;94.86
47811;BME280;33575;52.600;7.318;2023-12-07T06:57:13;101774.58;;;0.73;95.02
47811;BME280;33575;52.600;7.318;2023-12-07T06:59:43;101777.53;;;0.65;95.62
47811;BME280;33575;52.600;7.318;2023-12-07T07:02:13;101779.28;;;0.58;96.03
47811;BME280;33575;52.600;7.318;2023-12-07T07:04:44;101781.80;;;0.57;96.55
47811;BME280;33575;52.600;7.318;2023-12-07T07:07:14;101785.16;;;0.62;96.39
47811;BME280;33575;52.600;7.318;2023-12-07T07:09:44;101786.88;;;0.69;96.50
47811;BME280;33575;52.600;7.318;2023-12-07T07:12:15;101786.84;;;0.77;96.23
47811;BME280;33575;52.600;7.318;2023-12-07T07:14:45;101785.09;;;0.81;96.34
47811;BME280;33575;52.600;7.318;2023-12-07T07:17:15;101782.19;;;0.89;96.26
47811;BME280;33575;52.600;7.318;2023-12-07T07:19:45;101787.88;;;0.96;95.55
47811;BME280;33575;52.600;7.318;2023-12-07T07:22:16;101783.41;;;1.03;95.68
47811;BME280;33575;52.600;7.318;2023-12-07T07:24:47;101783.60;;;1.11;95.39
47811;BME280;33575;52.600;7.318;2023-12-07T07:27:16;101777.44;;;1.14;95.43
47811;BME280;33575;52.600;7.318;2023-12-07T07:29:47;101781.68;;;1.16;95.60
47811;BME280;33575;52.600;7.318;2023-12-07T07:32:18;101781.68;;;1.16;95.21
47811;BME280;33575;52.600;7.318;2023-12-07T07:34:48;101781.89;;;1.18;95.20
47811;BME280;33575;52.600;7.318;2023-12-07T07:37:19;101789.57;;;1.22;95.11
47811;BME280;33575;52.600;7.318;2023-12-07T07:39:49;101785.20;;;1.23;95.56
47811;BME280;33575;52.600;7.318;2023-12-07T07:42:20;101787.43;;;1.27;95.11
47811;BME280;33575;52.600;7.318;2023-12-07T07:44:50;101789.52;;;1.27;94.99
47811;BME280;33575;52.600;7.318;2023-12-07T07:47:21;101786.69;;;1.31;95.38
47811;BME280;33575;52.600;7.318;2023-12-07T07:49:51;101787.49;;;1.35;95.76
47811;BME280;33575;52.600;7.318;2023-12-07T07:52:22;101791.76;;;1.52;100.00
47811;BME280;33575;52.600;7.318;2023-12-07T07:54:52;101798.01;;;1.50;98.66
47811;BME280;33575;52.600;7.318;2023-12-07T07:57:23;101800.08;;;1.39;96.53
47811;BME280;33575;52.600;7.318;2023-12-07T07:59:53;101802.30;;;1.24;95.69
47811;BME280;33575;52.600;7.318;2023-12-07T08:02:23;101798.34;;;1.11;96.00
47811;BME280;33575;52.600;7.318;2023-12-07T08:04:53;101800.19;;;1.02;96.00
47811;BME280;33575;52.600;7.318;2023-12-07T08:07:24;101804.00;;;0.94;95.98
47811;BME280;33575;52.600;7.318;2023-12-07T08:09:54;101805.55;;;0.90;96.36
47811;BME280;33575;52.600;7.318;2023-12-07T08:12:24;101809.22;;;0.92;96.79
47811;BME280;33575;52.600;7.318;2023-12-07T08:14:54;101808.64;;;0.93;95.98
47811;BME280;33575;52.600;7.318;2023-12-07T08:17:25;101809.27;;;0.87;96.23
47811;BME280;33575;52.600;7.318;2023-12-07T08:19:56;101809.43;;;0.89;96.57
47811;BME280;33575;52.600;7.318;2023-12-07T08:22:26;101810.27;;;0.91;96.53
47811;BME280;33575;52.600;7.318;2023-12-07T08:25:02;101809.29;;;0.90;96.86
47811;BME280;33575;52.600;7.318;2023-12-07T08:27:27;101812.74;;;0.93;96.73
47811;BME280;33575;52.600;7.318;2023-12-07T08:29:58;101813.80;;;0.95;97.09
47811;BME280;33575;52.600;7.318;2023-12-07T08:32:28;101810.16;;;1.03;97.15
47811;BME280;33575;52.600;7.318;2023-12-07T08:34:59;101808.68;;;1.09;96.84
47811;BME280;33575;52.600;7.318;2023-12-07T08:37:30;101810.82;;;1.10;97.39
47811;BME280;33575;52.600;7.318;2023-12-07T08:39:59;101809.74;;;1.05;97.97
47811;BME280;33575;52.600;7.318;2023-12-07T08:42:30;101813.76;;;1.14;96.98
47811;BME280;33575;52.600;7.318;2023-12-07T08:45:00;101820.68;;;1.17;96.10
47811;BME280;33575;52.600;7.318;2023-12-07T08:47:30;101821.94;;;1.22;96.97
47811;BME280;33575;52.600;7.318;2023-12-07T08:50:01;101819.59;;;1.30;95.95
47811;BME280;33575;52.600;7.318;2023-12-07T08:52:37;101819.71;;;1.31;96.88
47811;BME280;33575;52.600;7.318;2023-12-07T08:55:03;101819.02;;;1.35;96.43
47811;BME280;33575;52.600;7.318;2023-12-07T08:57:32;101815.85;;;1.38;96.03
47811;BME280;33575;52.600;7.318;2023-12-07T09:00:04;101821.04;;;1.41;96.49
47811;BME280;33575;52.600;7.318;2023-12-07T09:02:39;101822.05;;;1.40;96.39
47811;BME280;33575;52.600;7.318;2023-12-07T09:05:06;101826.38;;;1.34;95.79
47811;BME280;33575;52.600;7.318;2023-12-07T09:07:35;101828.41;;;1.37;95.94
47811;BME280;33575;52.600;7.318;2023-12-07T09:10:07;101825.62;;;1.26;96.63
47811;BME280;33575;52.600;7.318;2023-12-07T09:12:40;101825.72;;;1.32;96.68
47811;BME280;33575;52.600;7.318;2023-12-07T09:15:08;101827.88;;;1.34;97.29
47811;BME280;33575;52.600;7.318;2023-12-07T09:17:38;101824.24;;;1.37;97.51
47811;BME280;33575;52.600;7.318;2023-12-07T09:20:09;101827.13;;;1.44;99.11
47811;BME280;33575;52.600;7.318;2023-12-07T09:22:40;101824.73;;;1.33;97.24
47811;BME280;33575;52.600;7.318;2023-12-07T09:25:09;101822.92;;;1.16;96.21
47811;BME280;33575;52.600;7.318;2023-12-07T09:27:40;101832.23;;;1.05;96.45
47811;BME280;33575;52.600;7.318;2023-12-07T09:30:11;101838.07;;;0.97;96.73
47811;BME280;33575;52.600;7.318;2023-12-07T09:32:41;101850.10;;;0.96;96.35
47811;BME280;33575;52.600;7.318;2023-12-07T09:35:12;101856.59;;;0.88;96.15
47811;BME280;33575;52.600;7.318;2023-12-07T09:37:42;101853.93;;;0.80;96.82
47811;BME280;33575;52.600;7.318;2023-12-07T09:40:15;101853.73;;;0.72;97.99
47811;BME280;33575;52.600;7.318;2023-12-07T09:42:43;101846.64;;;0.68;97.69
47811;BME280;33575;52.600;7.318;2023-12-07T09:45:15;101850.88;;;0.58;98.08
47811;BME280;33575;52.600;7.318;2023-12-07T09:47:47;101860.44;;;0.67;98.02
47811;BME280;33575;52.600;7.318;2023-12-07T09:50:15;101860.50;;;0.70;98.17
47811;BME280;33575;52.600;7.318;2023-12-07T09:52:50;101858.17;;;0.79;97.93
47811;BME280;33575;52.600;7.318;2023-12-07T09:55:16;101849.00;;;0.82;97.84
47811;BME280;33575;52.600;7.318;2023-12-07T09:57:46;101843.89;;;0.88;97.14
47811;BME280;33575;52.600;7.318;2023-12-07T10:00:16;101838.50;;;0.89;97.75
47811;BME280;33575;52.600;7.318;2023-12-07T10:02:46;101836.44;;;0.88;97.89
47811;BME280;33575;52.600;7.318;2023-12-07T10:05:17;101830.64;;;0.90;97.54
47811;BME280;33575;52.600;7.318;2023-12-07T10:07:49;101829.71;;;0.93;97.60
47811;BME280;33575;52.600;7.318;2023-12-07T10:10:19;101822.06;;;1.00;97.72
47811;BME280;33575;52.600;7.318;2023-12-07T10:12:52;101819.29;;;1.04;98.07
47811;BME280;33575;52.600;7.318;2023-12-07T10:15:21;101816.44;;;1.06;97.84
47811;BME280;33575;52.600;7.318;2023-12-07T10:17:52;101822.73;;;1.04;98.34
47811;BME280;33575;52.600;7.318;2023-12-07T10:20:23;101819.84;;;1.03;99.01
47811;BME280;33575;52.600;7.318;2023-12-07T10:25:23;101808.83;;;0.97;99.74
47811;BME280;33575;52.600;7.318;2023-12-07T10:27:52;101809.28;;;0.99;99.07
47811;BME280;33575;52.600;7.318;2023-12-07T10:30:23;101809.01;;;0.99;99.20
47811;BME280;33575;52.600;7.318;2023-12-07T10:32:53;101806.93;;;0.95;99.99
47811;BME280;33575;52.600;7.318;2023-12-07T10:35:24;101800.67;;;0.99;100.00
47811;BME280;33575;52.600;7.318;2023-12-07T10:37:53;101802.81;;;1.06;100.00
47811;BME280;33575;52.600;7.318;2023-12-07T10:40:24;101804.14;;;1.20;100.00
47811;BME280;33575;52.600;7.318;2023-12-07T10:42:57;101800.33;;;1.28;100.00
47811;BME280;33575;52.600;7.318;2023-12-07T10:45:26;101794.44;;;1.21;100.00
47811;BME280;33575;52.600;7.318;2023-12-07T10:47:58;101790.66;;;1.13;99.32
47811;BME280;33575;52.600;7.318;2023-12-07T10:50:26;101785.07;;;1.11;99.66
47811;BME280;33575;52.600;7.318;2023-12-07T10:52:57;101777.61;;;1.07;100.00
47811;BME280;33575;52.600;7.318;2023-12-07T10:55:28;101779.95;;;1.08;99.79
47811;BME280;33575;52.600;7.318;2023-12-07T10:57:58;101778.20;;;1.11;100.00
47811;BME280;33575;52.600;7.318;2023-12-07T11:00:33;101781.09;;;1.11;100.00
47811;BME280;33575;52.600;7.318;2023-12-07T11:02:59;101776.13;;;1.21;100.00
47811;BME280;33575;52.600;7.318;2023-12-07T11:05:29;101769.15;;;1.28;100.00
47811;BME280;33575;52.600;7.318;2023-12-07T11:08:05;101762.18;;;1.32;100.00
47811;BME280;33575;52.600;7.318;2023-12-07T11:10:36;101766.23;;;1.34;100.00
47811;BME280;33575;52.600;7.318;2023-12-07T11:13:07;101761.37;;;1.41;100.00
47811;BME280;33575;52.600;7.318;2023-12-07T11:15:30;101758.69;;;1.47;99.85
47811;BME280;33575;52.600;7.318;2023-12-07T11:18:02;101756.31;;;1.46;100.00
47811;BME280;33575;52.600;7.318;2023-12-07T11:20:41;101748.52;;;1.49;100.00
47811;BME280;33575;52.600;7.318;2023-12-07T11:23:04;101747.20;;;1.50;99.78
47811;BME280;33575;52.600;7.318;2023-12-07T11:25:33;101748.31;;;1.53;99.55
47811;BME280;33575;52.600;7.318;2023-12-07T11:28:03;101752.10;;;1.55;99.93
47811;BME280;33575;52.600;7.318;2023-12-07T11:30:35;101748.93;;;1.60;100.00
47811;BME280;33575;52.600;7.318;2023-12-07T11:33:04;101744.00;;;1.66;99.56
47811;BME280;33575;52.600;7.318;2023-12-07T11:38:07;101737.53;;;1.58;99.68
47811;BME280;33575;52.600;7.318;2023-12-07T11:40:37;101733.01;;;1.59;99.53
47811;BME280;33575;52.600;7.318;2023-12-07T11:43:06;101731.13;;;1.61;99.02
47811;BME280;33575;52.600;7.318;2023-12-07T11:45:39;101725.59;;;1.63;99.40
47811;BME280;33575;52.600;7.318;2023-12-07T11:48:08;101718.54;;;1.69;100.00
47811;BME280;33575;52.600;7.318;2023-12-07T11:53:08;101710.30;;;1.80;99.96
47811;BME280;33575;52.600;7.318;2023-12-07T11:55:39;101711.40;;;1.80;99.39
47811;BME280;33575;52.600;7.318;2023-12-07T11:58:12;101713.93;;;1.75;99.23
47811;BME280;33575;52.600;7.318;2023-12-07T12:00:40;101715.03;;;1.70;98.26
47811;BME280;33575;52.600;7.318;2023-12-07T12:03:12;101716.29;;;1.63;99.09
47811;BME280;33575;52.600;7.318;2023-12-07T12:05:41;101714.08;;;1.62;98.98
47811;BME280;33575;52.600;7.318;2023-12-07T12:08:11;101716.14;;;1.56;99.32
47811;BME280;33575;52.600;7.318;2023-12-07T12:10:41;101714.88;;;1.59;99.09
47811;BME280;33575;52.600;7.318;2023-12-07T12:13:12;101709.65;;;1.59;99.59
47811;BME280;33575;52.600;7.318;2023-12-07T12:15:42;101707.59;;;1.61;99.54
47811;BME280;33575;52.600;7.318;2023-12-07T12:18:12;101709.40;;;1.63;100.00
47811;BME280;33575;52.600;7.318;2023-12-07T12:20:44;101708.67;;;1.63;100.00
47811;BME280;33575;52.600;7.318;2023-12-07T12:23:13;101704.68;;;1.68;100.00
47811;BME280;33575;52.600;7.318;2023-12-07T12:25:44;101703.08;;;1.75;99.61
47811;BME280;33575;52.600;7.318;2023-12-07T12:28:16;101704.90;;;1.77;99.70
47811;BME280;33575;52.600;7.318;2023-12-07T12:30:45;101702.17;;;1.77;100.00
47811;BME280;33575;52.600;7.318;2023-12-07T12:33:15;101702.65;;;1.73;100.00
47811;BME280;33575;52.600;7.318;2023-12-07T12:35:45;101694.91;;;1.74;100.00
47811;BME280;33575;52.600;7.318;2023-12-07T12:38:21;101690.43;;;1.72;100.00
47811;BME280;33575;52.600;7.318;2023-12-07T12:40:46;101690.19;;;1.74;100.00
47811;BME280;33575;52.600;7.318;2023-12-07T12:43:16;101685.86;;;1.78;99.96
47811;BME280;33575;52.600;7.318;2023-12-07T12:45:53;101686.05;;;1.83;99.65
47811;BME280;33575;52.600;7.318;2023-12-07T12:48:18;101683.84;;;1.84;99.30
47811;BME280;33575;52.600;7.318;2023-12-07T12:50:48;101682.65;;;1.84;99.41
47811;BME280;33575;52.600;7.318;2023-12-07T12:53:18;101672.75;;;1.87;98.63
47811;BME280;33575;52.600;7.318;2023-12-07T12:55:49;101662.69;;;1.85;98.99
47811;BME280;33575;52.600;7.318;2023-12-07T12:58:19;101657.44;;;1.85;99.14
47811;BME280;33575;52.600;7.318;2023-12-07T13:00:49;101649.34;;;1.86;99.05
47811;BME280;33575;52.600;7.318;2023-12-07T13:03:20;101651.80;;;1.85;99.61
47811;BME280;33575;52.600;7.318;2023-12-07T13:05:50;101650.40;;;1.83;99.53
47811;BME280;33575;52.600;7.318;2023-12-07T13:08:20;101648.28;;;1.88;98.65
47811;BME280;33575;52.600;7.318;2023-12-07T13:10:50;101643.38;;;1.84;99.52
47811;BME280;33575;52.600;7.318;2023-12-07T13:13:20;101644.38;;;1.87;100.00
47811;BME280;33575;52.600;7.318;2023-12-07T13:15:50;101640.51;;;1.95;99.97
47811;BME280;33575;52.600;7.318;2023-12-07T13:18:21;101633.84;;;2.00;100.00
47811;BME280;33575;52.600;7.318;2023-12-07T13:20:57;101632.49;;;2.09;100.00
47811;BME280;33575;52.600;7.318;2023-12-07T13:23:23;101622.70;;;2.07;99.25